Time;durP1;ratioP1;P1;durP2;ratioP2;P2;SDS_P1;SDS_P2;PMS_P1;PMS_P2;Temp;Humidity;BMP_temperature;BMP_pressure;BME280_temperature;BME280_humidity;BME280_pressure;Samples;Min_cycle;Max_cycle;Signal;HPM_P1;HPM_P2
2022/03/05 00:00:49;;;;;;;15.82;9.40;;;;;;;4.35;47.91;101000.41;4178763;28;20064;-60
2022/03/05 00:02:54;;;;;;;17.88;10.73;;;;;;;4.35;48.15;101000.41;4176752;28;20080;-60
2022/03/05 00:04:56;;;;;;;16.20;9.82;;;;;;;4.37;47.86;101000.47;4180487;28;20047;-59
2022/03/05 00:06:59;;;;;;;20.38;11.30;;;;;;;4.42;47.45;100987.81;4175154;28;20041;-60
2022/03/05 00:09:03;;;;;;;18.45;10.30;;;;;;;4.36;48.29;100991.00;4175203;28;20051;-60
2022/03/05 00:11:06;;;;;;;17.92;10.88;;;;;;;4.33;48.41;100990.84;4180521;28;20047;-60
2022/03/05 00:13:09;;;;;;;14.90;9.30;;;;;;;4.32;48.86;100986.50;4172882;28;20067;-60
2022/03/05 00:15:12;;;;;;;19.27;11.38;;;;;;;4.32;48.58;100989.06;4174379;28;20044;-60
2022/03/05 00:17:15;;;;;;;17.95;10.77;;;;;;;4.32;48.79;100989.06;4180637;28;20406;-60
2022/03/05 00:19:19;;;;;;;24.52;11.75;;;;;;;4.30;48.46;100986.44;4177730;28;20499;-60
2022/03/05 00:21:21;;;;;;;14.82;9.60;;;;;;;4.26;48.63;100989.66;4179486;28;20086;-60
2022/03/05 00:23:25;;;;;;;16.13;9.95;;;;;;;4.27;48.50;100995.69;4178322;28;20060;-60
2022/03/05 00:25:29;;;;;;;16.95;9.63;;;;;;;4.25;48.98;100993.06;4164045;28;20585;-60
2022/03/05 00:27:31;;;;;;;17.17;9.98;;;;;;;4.23;48.79;100993.78;4164126;28;20041;-60
2022/03/05 00:29:34;;;;;;;16.58;10.18;;;;;;;4.19;49.07;100987.59;4184762;28;20167;-60
2022/03/05 00:31:37;;;;;;;17.80;10.00;;;;;;;4.22;48.62;100987.75;4163844;28;20111;-60
2022/03/05 00:33:40;;;;;;;15.60;9.90;;;;;;;4.18;49.24;100994.44;4176226;28;20085;-60
2022/03/05 00:35:44;;;;;;;16.50;10.35;;;;;;;4.14;49.53;100997.66;4175326;28;20037;-60
2022/03/05 00:37:46;;;;;;;17.23;9.90;;;;;;;4.07;50.02;100994.72;4178603;28;20106;-60
2022/03/05 00:39:50;;;;;;;17.58;10.55;;;;;;;4.17;49.19;100995.25;4171175;28;20295;-60
2022/03/05 00:41:52;;;;;;;19.95;11.82;;;;;;;4.19;49.37;100993.63;4166289;28;20445;-60
2022/03/05 00:43:55;;;;;;;21.83;11.75;;;;;;;4.16;49.26;100990.91;4179599;28;20067;-60
2022/03/05 00:45:58;;;;;;;19.30;12.20;;;;;;;4.11;49.63;100996.66;4172667;28;20454;-60
2022/03/05 00:48:00;;;;;;;19.10;11.18;;;;;;;4.06;49.61;100996.44;4163754;28;20124;-60
2022/03/05 00:50:06;;;;;;;16.67;10.38;;;;;;;3.99;49.56;100994.34;4170634;28;20418;-60
2022/03/05 00:52:10;;;;;;;18.17;10.65;;;;;;;3.98;50.19;100995.16;4179461;28;20048;-60
2022/03/05 00:54:13;;;;;;;18.02;10.88;;;;;;;3.94;49.60;100996.72;4175596;28;20044;-60
2022/03/05 00:56:16;;;;;;;20.30;11.13;;;;;;;3.92;50.45;101003.44;4174538;28;20407;-60
2022/03/05 00:58:19;;;;;;;17.58;11.65;;;;;;;3.90;50.08;100996.44;4163897;28;20041;-60
2022/03/05 01:00:21;;;;;;;16.73;10.48;;;;;;;3.91;49.92;100996.53;4172504;28;20410;-60
2022/03/05 01:02:24;;;;;;;20.33;11.63;;;;;;;3.89;49.86;100998.16;4169909;28;20096;-60
2022/03/05 01:04:27;;;;;;;17.83;11.57;;;;;;;3.90;50.12;100993.88;4167596;28;20065;-60
2022/03/05 01:06:30;;;;;;;18.27;10.82;;;;;;;3.90;50.43;100989.63;4178253;28;20041;-60
2022/03/05 01:08:34;;;;;;;21.45;11.35;;;;;;;3.91;50.75;100993.94;4179419;28;20116;-60
2022/03/05 01:10:37;;;;;;;21.90;12.25;;;;;;;3.87;50.85;100991.16;4174908;28;20037;-60
2022/03/05 01:12:40;;;;;;;20.73;12.32;;;;;;;3.84;50.96;101002.16;4171261;28;20053;-60
2022/03/05 01:14:42;;;;;;;20.60;12.75;;;;;;;3.83;51.07;100996.16;4176212;28;20056;-60
2022/03/05 01:16:46;;;;;;;22.23;12.40;;;;;;;3.83;51.13;101000.44;4171551;28;20042;-60
2022/03/05 01:18:49;;;;;;;24.48;12.27;;;;;;;3.88;51.43;100998.94;4165571;28;20111;-60
2022/03/05 01:20:52;;;;;;;19.08;11.75;;;;;;;3.83;51.41;100996.16;4178352;28;20091;-59
2022/03/05 01:22:54;;;;;;;21.08;12.15;;;;;;;3.80;51.67;100996.00;4178650;28;20068;-60
2022/03/05 01:24:59;;;;;;;20.38;11.95;;;;;;;3.82;51.76;100984.09;4179805;28;20051;-60
2022/03/05 01:27:01;;;;;;;23.37;12.93;;;;;;;3.74;52.02;100989.66;4168638;28;20545;-60
2022/03/05 01:29:04;;;;;;;22.27;12.70;;;;;;;3.71;52.00;100987.84;4173353;28;20292;-60
2022/03/05 01:31:07;;;;;;;18.65;10.63;;;;;;;3.66;51.99;100990.19;4165284;28;20041;-60
2022/03/05 01:33:12;;;;;;;21.90;13.52;;;;;;;3.67;52.07;100983.34;4164147;28;20037;-60
2022/03/05 01:35:15;;;;;;;20.73;13.23;;;;;;;3.65;52.28;100987.50;4177837;28;20511;-60
2022/03/05 01:37:18;;;;;;;20.65;11.80;;;;;;;3.62;51.88;100992.50;4171246;28;20036;-60
2022/03/05 01:39:21;;;;;;;20.33;12.18;;;;;;;3.61;52.08;100988.19;4167419;28;20073;-60
2022/03/05 01:41:25;;;;;;;18.02;11.65;;;;;;;3.59;53.02;100984.63;4180486;28;20053;-61
2022/03/05 01:43:28;;;;;;;22.67;12.55;;;;;;;3.45;52.73;100989.94;4180205;28;20036;-59
2022/03/05 01:45:31;;;;;;;22.70;11.90;;;;;;;3.47;52.62;100988.34;4182950;28;20052;-59
2022/03/05 01:47:34;;;;;;;19.95;11.75;;;;;;;3.45;52.29;100992.53;4176476;28;20044;-59
2022/03/05 01:49:37;;;;;;;23.65;13.70;;;;;;;3.43;52.79;100993.25;4174096;28;20053;-60
2022/03/05 01:51:41;;;;;;;20.48;11.82;;;;;;;3.40;52.52;100991.41;4179504;28;20056;-59
2022/03/05 01:53:43;;;;;;;19.27;12.40;;;;;;;3.38;52.53;101000.72;4180316;28;20045;-60
2022/03/05 01:55:47;;;;;;;26.42;14.07;;;;;;;3.36;52.93;100994.63;4182700;28;20044;-60
2022/03/05 01:57:51;;;;;;;28.20;15.70;;;;;;;3.35;52.93;101000.56;4171787;28;20046;-60
2022/03/05 01:59:55;;;;;;;23.75;14.88;;;;;;;3.23;53.24;101002.50;4170464;28;20391;-60
2022/03/05 02:01:58;;;;;;;29.02;16.33;;;;;;;3.12;52.89;100995.09;4172792;28;20055;-60
2022/03/05 02:04:01;;;;;;;28.00;15.73;;;;;;;3.08;53.57;100998.31;4177644;28;20040;-60
2022/03/05 02:06:03;;;;;;;26.45;15.65;;;;;;;3.08;53.72;101003.47;4182431;28;20392;-60
2022/03/05 02:08:06;;;;;;;31.05;17.88;;;;;;;3.04;53.80;100995.47;4180060;28;20071;-60
2022/03/05 02:10:10;;;;;;;30.05;17.02;;;;;;;3.01;53.57;100996.22;4169650;28;20049;-60
2022/03/05 02:12:12;;;;;;;35.60;20.20;;;;;;;2.93;53.68;101000.06;4166808;28;20503;-60
2022/03/05 02:14:20;;;;;;;31.02;17.13;;;;;;;2.91;53.88;100991.41;4180670;28;20065;-60
2022/03/05 02:16:23;;;;;;;32.40;19.15;;;;;;;2.81;54.37;100992.56;4179574;28;20049;-60
2022/03/05 02:18:29;;;;;;;30.50;17.92;;;;;;;2.78;54.55;100995.84;4176488;28;20065;-60
2022/03/05 02:20:33;;;;;;;32.47;17.75;;;;;;;2.76;54.44;100994.91;4172839;28;20041;-60
2022/03/05 02:22:39;;;;;;;33.78;18.75;;;;;;;2.72;54.89;100999.78;4164364;28;20466;-60
2022/03/05 02:24:41;;;;;;;38.63;20.30;;;;;;;2.74;54.51;100996.47;4180799;28;20101;-60
2022/03/05 02:26:45;;;;;;;36.20;20.23;;;;;;;2.66;54.95;100997.78;4181527;28;20271;-60
2022/03/05 02:28:48;;;;;;;38.78;19.83;;;;;;;2.61;55.09;101007.78;4178607;28;20064;-59
2022/03/05 02:30:51;;;;;;;31.80;18.88;;;;;;;2.55;55.11;101004.84;4177888;28;20053;-60
2022/03/05 02:32:54;;;;;;;34.40;19.75;;;;;;;2.54;54.95;101002.22;4179381;28;20418;-60
2022/03/05 02:34:57;;;;;;;39.78;20.52;;;;;;;2.56;55.30;101003.19;4181716;28;20037;-59
2022/03/05 02:37:01;;;;;;;35.28;19.50;;;;;;;2.63;55.37;101002.72;4169037;28;20040;-59
2022/03/05 02:39:04;;;;;;;36.50;20.35;;;;;;;2.62;55.42;101001.84;4181655;28;20494;-60
2022/03/05 02:41:06;;;;;;;37.92;19.67;;;;;;;2.62;55.47;101003.53;4174256;28;20449;-60
2022/03/05 02:43:10;;;;;;;34.90;18.75;;;;;;;2.61;55.54;101005.22;4164938;28;20078;-59
2022/03/05 02:45:13;;;;;;;39.78;23.33;;;;;;;2.61;55.46;100999.19;4169432;28;20033;-59
2022/03/05 02:47:16;;;;;;;34.58;20.65;;;;;;;2.65;55.99;100992.56;4181478;28;20106;-60
2022/03/05 02:49:19;;;;;;;30.35;18.40;;;;;;;2.85;55.53;100998.75;4180335;28;20052;-59
2022/03/05 02:51:22;;;;;;;34.13;18.85;;;;;;;2.60;55.76;100997.44;4172622;28;20045;-60
2022/03/05 02:53:26;;;;;;;31.65;18.75;;;;;;;2.61;55.71;101004.31;4172639;28;20453;-60
2022/03/05 02:55:28;;;;;;;35.03;17.90;;;;;;;2.64;56.26;100999.34;4181129;28;20052;-60
2022/03/05 02:57:31;;;;;;;30.17;16.38;;;;;;;2.57;56.14;101003.28;4167550;28;20690;-60
2022/03/05 02:59:34;;;;;;;33.88;20.08;;;;;;;2.60;56.31;101003.44;4174837;28;20046;-59
2022/03/05 03:01:36;;;;;;;36.00;18.88;;;;;;;2.64;56.57;101003.59;4174018;28;20511;-59
2022/03/05 03:03:40;;;;;;;32.25;17.77;;;;;;;2.52;56.55;101009.81;4170464;28;20045;-59
2022/03/05 03:05:43;;;;;;;29.25;16.67;;;;;;;2.49;57.09;101003.66;4181645;28;20041;-60
2022/03/05 03:07:45;;;;;;;35.22;18.00;;;;;;;2.50;57.26;101008.88;4169643;28;20049;-60
2022/03/05 03:09:50;;;;;;;34.50;18.25;;;;;;;2.62;57.05;101008.66;4165136;28;20037;-60
2022/03/05 03:11:52;;;;;;;30.73;16.83;;;;;;;2.49;56.68;101008.78;4167046;28;20454;-60
2022/03/05 03:13:55;;;;;;;36.03;17.60;;;;;;;2.29;57.38;101003.41;4163930;28;20345;-60
2022/03/05 03:15:58;;;;;;;33.47;18.30;;;;;;;2.27;57.63;101003.31;4175825;28;20045;-60
2022/03/05 03:18:00;;;;;;;30.70;16.13;;;;;;;2.36;57.42;101002.06;4172857;28;20511;-60
2022/03/05 03:20:04;;;;;;;30.23;16.75;;;;;;;2.35;57.58;100996.06;4164988;28;20041;-60
2022/03/05 03:22:07;;;;;;;32.13;16.90;;;;;;;2.22;57.81;101003.84;4164843;28;20049;-60
2022/03/05 03:24:10;;;;;;;28.80;16.58;;;;;;;2.20;58.20;101000.31;4176639;28;20037;-60
2022/03/05 03:26:14;;;;;;;31.38;16.33;;;;;;;2.14;58.18;101005.13;4175089;28;20380;-60
2022/03/05 03:28:16;;;;;;;34.40;17.90;;;;;;;2.14;58.12;101008.56;4174061;28;20045;-60
2022/03/05 03:30:20;;;;;;;36.13;18.10;;;;;;;2.05;58.50;100998.66;4180522;28;20499;-60
2022/03/05 03:32:24;;;;;;;32.55;18.27;;;;;;;2.01;58.60;101009.53;4169816;28;20272;-60
2022/03/05 03:34:26;;;;;;;26.50;15.30;;;;;;;1.96;58.89;101004.94;4173604;28;20048;-59
2022/03/05 03:36:29;;;;;;;28.50;16.35;;;;;;;2.05;58.66;101011.47;4165967;28;20037;-59
2022/03/05 03:38:32;;;;;;;34.95;17.40;;;;;;;2.07;58.73;101002.22;4180214;28;20044;-60
2022/03/05 03:40:35;;;;;;;32.10;17.23;;;;;;;2.09;58.82;100999.72;4180979;28;20398;-59
2022/03/05 03:42:40;;;;;;;33.22;15.95;;;;;;;2.11;58.44;101010.06;4167962;28;20045;-59
2022/03/05 03:44:42;;;;;;;32.03;17.17;;;;;;;2.01;59.03;101013.78;4177269;28;20521;-60
2022/03/05 03:46:46;;;;;;;31.88;17.27;;;;;;;1.97;58.82;101015.31;4179046;28;20049;-59
2022/03/05 03:48:49;;;;;;;37.40;17.80;;;;;;;1.88;59.09;101017.31;4164374;28;20041;-60
2022/03/05 03:50:52;;;;;;;30.95;17.02;;;;;;;1.96;59.22;101021.22;4167790;28;20037;-60
2022/03/05 03:52:54;;;;;;;34.03;16.58;;;;;;;1.94;59.27;101017.66;4181059;28;20506;-59
2022/03/05 03:54:58;;;;;;;31.02;16.10;;;;;;;1.97;59.49;101028.13;4166216;28;20447;-60
2022/03/05 03:57:00;;;;;;;31.20;16.00;;;;;;;1.95;59.10;101028.81;4175561;28;20045;-60
2022/03/05 03:59:04;;;;;;;29.23;15.65;;;;;;;1.96;59.15;101025.44;4175625;28;20080;-60
2022/03/05 04:01:07;;;;;;;29.50;16.17;;;;;;;1.99;59.36;101023.09;4181462;28;20612;-60
2022/03/05 04:03:10;;;;;;;32.22;16.83;;;;;;;2.04;58.82;101026.78;4171566;28;20291;-60
2022/03/05 04:05:13;;;;;;;32.95;17.15;;;;;;;2.06;58.68;101023.50;4174737;28;20045;-60
2022/03/05 04:09:37;;;;;;;29.27;15.60;;;;;;;2.07;58.63;101025.28;4165229;28;20054;-60
2022/03/05 04:11:39;;;;;;;28.05;16.15;;;;;;;2.14;58.18;101028.19;4173916;28;20052;-60
2022/03/05 04:13:43;;;;;;;30.67;15.73;;;;;;;2.05;58.49;101029.44;4169345;28;20642;-60
2022/03/05 04:15:47;;;;;;;31.10;16.70;;;;;;;2.12;58.34;101024.66;4164160;28;20107;-60
2022/03/05 04:17:50;;;;;;;25.08;14.55;;;;;;;2.03;58.17;101028.47;4165196;28;20049;-60
2022/03/05 04:19:53;;;;;;;26.50;15.27;;;;;;;1.96;58.54;101031.47;4164918;28;20062;-60
2022/03/05 04:21:56;;;;;;;27.27;14.98;;;;;;;2.00;58.76;101025.72;4177486;28;20434;-60
2022/03/05 04:23:58;;;;;;;31.27;17.58;;;;;;;1.99;58.57;101023.94;4167566;28;20037;-60
2022/03/05 04:26:01;;;;;;;32.72;16.17;;;;;;;1.98;58.72;101018.75;4180361;28;20041;-60
2022/03/05 04:28:05;;;;;;;27.13;15.13;;;;;;;1.96;59.00;101018.66;4178547;28;20041;-60
2022/03/05 04:30:09;;;;;;;28.55;15.30;;;;;;;1.93;59.08;101028.72;4178105;28;20045;-60
2022/03/05 04:32:15;;;;;;;;;;;;;;;1.78;59.90;101027.81;4165923;28;20407;-60
2022/03/05 04:34:19;;;;;;;26.10;14.65;;;;;;;1.85;59.35;101032.50;4170202;28;20306;-59
2022/03/05 04:36:22;;;;;;;26.27;15.63;;;;;;;1.94;58.98;101033.03;4178923;28;20063;-60
2022/03/05 04:38:24;;;;;;;27.38;14.40;;;;;;;2.03;59.32;101038.72;4162660;28;20068;-60
2022/03/05 04:40:29;;;;;;;;;;;;;;;1.91;59.50;101040.56;4165531;28;20103;-60
2022/03/05 04:42:32;;;;;;;31.52;16.48;;;;;;;1.89;59.32;101034.47;4172690;28;19921;-60
2022/03/05 04:44:35;;;;;;;29.05;16.15;;;;;;;1.92;59.43;101040.66;4172277;28;20045;-60
2022/03/05 04:46:38;;;;;;;27.83;15.65;;;;;;;1.92;59.38;101034.66;4180208;28;20072;-60
2022/03/05 04:48:42;;;;;;;28.38;16.35;;;;;;;1.93;59.30;101041.56;4178138;28;20609;-60
2022/03/05 04:50:48;;;;;;;27.90;15.37;;;;;;;1.89;59.20;101044.72;4194101;28;20529;-60
2022/03/05 04:52:51;;;;;;;27.10;14.25;;;;;;;1.92;59.18;101039.78;4177687;28;20103;-60
2022/03/05 04:54:54;;;;;;;30.77;15.35;;;;;;;1.91;58.97;101043.13;4164316;28;20124;-60
2022/03/05 04:56:57;;;;;;;30.50;16.10;;;;;;;1.89;58.81;101045.59;4172706;28;20040;-60
2022/03/05 04:59:00;;;;;;;30.35;16.75;;;;;;;1.86;59.37;101044.56;4172681;28;20441;-60
2022/03/05 05:01:03;;;;;;;30.20;15.77;;;;;;;1.82;59.24;101046.03;4172107;28;20037;-60
2022/03/05 05:03:06;;;;;;;26.20;14.43;;;;;;;1.80;59.54;101044.19;4178542;28;20111;-60
2022/03/05 05:05:11;;;;;;;26.63;15.15;;;;;;;1.77;59.00;101050.03;4180152;28;20090;-60
2022/03/05 05:07:15;;;;;;;31.58;16.25;;;;;;;1.75;59.28;101051.59;4169565;28;20099;-59
2022/03/05 05:09:18;;;;;;;32.17;17.30;;;;;;;1.75;59.38;101049.03;4165387;28;20094;-60
2022/03/05 05:11:21;;;;;;;32.35;16.92;;;;;;;1.80;59.19;101059.56;4179310;28;20048;-60
2022/03/05 05:13:24;;;;;;;28.77;16.40;;;;;;;1.79;59.02;101056.09;4175336;28;20048;-60
2022/03/05 05:15:26;;;;;;;30.58;17.33;;;;;;;1.80;59.24;101062.13;4175331;28;20080;-60
2022/03/05 05:17:35;;;;;;;28.25;16.52;;;;;;;1.83;59.04;101065.75;4181812;28;20392;-60
2022/03/05 05:19:37;;;;;;;32.10;16.48;;;;;;;1.72;59.21;101065.13;4183141;28;20068;-60
2022/03/05 05:21:42;;;;;;;31.42;16.60;;;;;;;1.70;60.04;101061.56;4177869;28;20098;-60
2022/03/05 05:23:45;;;;;;;31.98;16.85;;;;;;;1.71;59.87;101073.59;4170102;28;20061;-60
2022/03/05 05:25:48;;;;;;;30.13;16.63;;;;;;;1.66;60.00;101067.31;4173236;28;20268;-60
2022/03/05 05:27:50;;;;;;;33.00;16.48;;;;;;;1.60;59.76;101072.06;4180250;28;20040;-59
2022/03/05 05:29:53;;;;;;;29.02;16.08;;;;;;;1.61;60.30;101073.84;4178491;28;20033;-60
2022/03/05 05:31:56;;;;;;;28.83;15.93;;;;;;;1.62;60.23;101075.63;4181849;28;20495;-60
2022/03/05 05:33:59;;;;;;;29.33;16.60;;;;;;;1.59;59.86;101071.97;4172654;28;20096;-60
2022/03/05 05:36:03;;;;;;;30.65;16.20;;;;;;;1.68;60.00;101080.22;4169447;28;20047;-59
2022/03/05 05:38:07;;;;;;;27.83;15.27;;;;;;;1.60;59.49;101076.31;4180863;28;20033;-59
2022/03/05 05:40:11;;;;;;;30.17;16.38;;;;;;;1.56;59.79;101070.09;4166613;28;20064;-60
2022/03/05 05:42:14;;;;;;;24.80;14.75;;;;;;;1.56;60.40;101072.66;4168650;28;20594;-59
2022/03/05 05:44:16;;;;;;;30.23;16.35;;;;;;;1.54;60.65;101071.72;4174979;28;20419;-60
2022/03/05 05:46:19;;;;;;;30.63;14.98;;;;;;;1.55;60.50;101073.47;4175538;28;20033;-60
2022/03/05 05:48:29;;;;;;;28.48;15.23;;;;;;;1.55;60.79;101073.47;4174436;28;20051;-60
2022/03/05 05:50:31;;;;;;;28.05;14.38;;;;;;;1.56;60.12;101075.22;4181172;28;20544;-60
2022/03/05 05:52:34;;;;;;;28.55;15.95;;;;;;;1.57;60.43;101074.44;4168191;28;20099;-59
2022/03/05 05:54:38;;;;;;;25.58;14.18;;;;;;;1.58;60.72;101078.78;4176616;28;20045;-59
2022/03/05 05:56:42;;;;;;;;;;;;;;;1.43;60.81;101072.72;4183291;28;20041;-59
2022/03/05 05:58:45;;;;;;;27.63;14.68;;;;;;;1.44;60.94;101082.19;4168455;28;19975;-60
2022/03/05 06:00:49;;;;;;;30.80;15.50;;;;;;;1.50;60.75;101086.00;4179798;28;20036;-60
2022/03/05 06:02:51;;;;;;;29.10;16.42;;;;;;;1.51;60.98;101082.66;4180150;28;20049;-60
2022/03/05 06:04:54;;;;;;;28.08;15.43;;;;;;;1.53;60.90;101085.31;4166276;28;20119;-60
2022/03/05 06:06:59;;;;;;;29.08;16.08;;;;;;;1.55;60.73;101084.59;4166025;28;20045;-60
2022/03/05 06:09:01;;;;;;;;;;;;;;;1.41;61.15;101082.00;4166323;28;20049;-60
2022/03/05 06:11:05;;;;;;;25.75;14.80;;;;;;;1.49;60.39;101091.94;4176904;28;19921;-60
2022/03/05 06:13:08;;;;;;;28.70;16.40;;;;;;;1.39;61.14;101090.47;4181078;28;20068;-60
2022/03/05 06:15:11;;;;;;;29.55;16.17;;;;;;;1.44;61.01;101088.19;4173770;28;20287;-60
2022/03/05 06:17:14;;;;;;;29.27;16.13;;;;;;;1.48;61.09;101094.41;4165828;28;20203;-60
2022/03/05 06:19:17;;;;;;;28.90;16.65;;;;;;;1.51;60.43;101099.72;4181036;28;20052;-60
2022/03/05 06:21:20;;;;;;;28.17;15.80;;;;;;;1.48;60.61;101092.72;4165848;28;20041;-60
2022/03/05 06:23:23;;;;;;;29.92;16.45;;;;;;;1.49;60.99;101093.59;4164547;28;20044;-60
2022/03/05 06:25:26;;;;;;;27.08;15.10;;;;;;;1.37;60.65;101099.75;4179931;28;20044;-60
2022/03/05 06:27:30;;;;;;;27.92;16.13;;;;;;;1.31;60.60;101101.91;4173945;28;20037;-60
2022/03/05 06:29:33;;;;;;;29.90;15.80;;;;;;;1.23;60.57;101098.00;4177842;28;20041;-60
2022/03/05 06:31:35;;;;;;;25.10;14.65;;;;;;;1.16;61.10;101101.84;4169443;28;20300;-60
2022/03/05 06:33:39;;;;;;;26.17;14.98;;;;;;;1.11;61.47;101110.03;4168788;28;20099;-60
2022/03/05 06:35:41;;;;;;;27.50;14.68;;;;;;;0.97;61.29;101111.75;4164436;28;20143;-60
2022/03/05 06:37:45;;;;;;;31.85;14.80;;;;;;;0.94;61.10;101117.53;4166655;28;20060;-59
2022/03/05 06:39:48;;;;;;;24.40;14.15;;;;;;;0.93;61.07;101117.44;4166494;28;20038;-60
2022/03/05 06:41:51;;;;;;;25.75;14.65;;;;;;;0.91;61.71;101126.72;4175633;28;20462;-60
2022/03/05 06:43:55;;;;;;;34.33;18.10;;;;;;;0.90;62.28;101130.94;4180708;28;20067;-60
2022/03/05 06:45:58;;;;;;;33.03;17.85;;;;;;;0.95;61.47;101126.09;4171226;28;20047;-60
2022/03/05 06:48:01;;;;;;;31.27;16.20;;;;;;;0.96;61.13;101125.31;4166558;28;20049;-60
2022/03/05 06:50:04;;;;;;;31.17;16.65;;;;;;;0.92;61.27;101128.47;4172842;28;20041;-60
2022/03/05 06:52:07;;;;;;;33.30;17.52;;;;;;;0.82;62.12;101127.88;4180170;28;20102;-60
2022/03/05 06:54:10;;;;;;;31.85;16.63;;;;;;;0.78;62.10;101125.91;4177685;28;20044;-60
2022/03/05 06:56:12;;;;;;;31.85;16.83;;;;;;;0.73;62.69;101128.97;4170331;28;20048;-61
2022/03/05 06:58:17;;;;;;;30.35;16.15;;;;;;;0.84;61.79;101128.00;4172686;28;20430;-60
2022/03/05 07:00:21;;;;;;;36.45;18.25;;;;;;;0.79;61.52;101129.34;4165338;28;20462;-60
2022/03/05 07:02:24;;;;;;;31.40;18.52;;;;;;;0.74;62.29;101138.41;4168917;28;20357;-59
2022/03/05 07:04:27;;;;;;;33.25;16.40;;;;;;;0.69;62.67;101140.69;4179262;28;20114;-60
2022/03/05 07:06:30;;;;;;;30.25;15.75;;;;;;;0.80;61.82;101133.69;4180857;28;20098;-60
2022/03/05 07:08:33;;;;;;;31.42;16.85;;;;;;;0.87;61.84;101140.97;4177212;28;20110;-61
2022/03/05 07:10:36;;;;;;;26.77;15.35;;;;;;;0.94;61.39;101144.84;4181132;28;20041;-61
2022/03/05 07:12:39;;;;;;;28.63;16.10;;;;;;;0.92;61.30;101147.28;4173090;28;20454;-60
2022/03/05 07:14:44;;;;;;;31.73;16.73;;;;;;;1.00;61.78;101150.34;4177197;28;20419;-60
2022/03/05 07:16:48;;;;;;;32.90;16.92;;;;;;;1.02;61.58;101141.97;4165448;28;20064;-60
2022/03/05 07:18:51;;;;;;;27.98;15.63;;;;;;;1.08;62.01;101145.69;4180608;28;20049;-60
2022/03/05 07:20:54;;;;;;;30.50;15.65;;;;;;;1.16;61.31;101145.38;4167585;28;20053;-60
2022/03/05 07:22:57;;;;;;;32.92;16.55;;;;;;;1.26;61.10;101149.41;4166152;28;20372;-60
2022/03/05 07:24:59;;;;;;;34.20;17.27;;;;;;;1.29;61.25;101151.31;4181222;28;20426;-60
2022/03/05 07:27:02;;;;;;;33.28;16.88;;;;;;;1.36;61.70;101154.34;4181439;28;20053;-60
2022/03/05 07:29:06;;;;;;;33.40;16.25;;;;;;;1.35;61.27;101157.69;4181357;28;20041;-60
2022/03/05 07:31:09;;;;;;;28.75;16.13;;;;;;;1.43;61.02;101157.28;4180949;28;20437;-60
2022/03/05 07:33:13;;;;;;;27.38;15.93;;;;;;;1.46;61.08;101160.94;4180509;28;20438;-61
2022/03/05 07:35:15;;;;;;;36.38;18.05;;;;;;;1.41;61.80;101158.88;4181272;28;20406;-60
2022/03/05 07:37:18;;;;;;;33.33;18.38;;;;;;;1.40;61.26;101152.84;4178676;28;20053;-61
2022/03/05 07:39:21;;;;;;;31.73;18.00;;;;;;;1.55;60.72;101160.59;4176316;28;20061;-60
2022/03/05 07:41:24;;;;;;;29.60;16.95;;;;;;;1.55;61.32;101156.34;4178250;28;20037;-60
2022/03/05 07:43:26;;;;;;;33.15;17.02;;;;;;;1.49;61.39;101161.09;4173087;28;20044;-60
2022/03/05 07:45:29;;;;;;;30.58;16.67;;;;;;;1.61;60.61;101158.41;4177924;28;20037;-60
2022/03/05 07:47:32;;;;;;;33.88;19.15;;;;;;;1.63;60.92;101164.50;4180627;28;20049;-60
2022/03/05 07:49:36;;;;;;;31.67;17.13;;;;;;;1.60;61.36;101163.44;4180702;28;20044;-61
2022/03/05 07:51:39;;;;;;;33.50;18.50;;;;;;;1.64;61.32;101160.28;4179220;28;20596;-61
2022/03/05 07:53:42;;;;;;;30.50;17.13;;;;;;;1.71;61.23;101165.88;4179777;28;20500;-61
2022/03/05 07:55:45;;;;;;;31.90;18.42;;;;;;;1.84;61.12;101166.63;4180518;28;20071;-61
2022/03/05 07:57:48;;;;;;;38.53;18.10;;;;;;;1.88;60.93;101166.00;4176228;28;20112;-61
2022/03/05 07:59:50;;;;;;;32.80;17.80;;;;;;;1.94;60.58;101160.38;4170683;28;20465;-61
2022/03/05 08:02:16;;;;;;;27.17;15.70;;;;;;;2.03;60.42;101166.94;4179487;28;20499;-61
2022/03/05 08:04:19;;;;;;;29.90;15.98;;;;;;;2.17;60.14;101162.63;4180527;28;20041;-61
2022/03/05 08:06:23;;;;;;;29.27;16.52;;;;;;;2.29;60.08;101159.03;4180385;28;20049;-61
2022/03/05 08:08:25;;;;;;;33.93;17.80;;;;;;;2.38;59.93;101164.69;4175075;28;20040;-61
2022/03/05 08:10:28;;;;;;;32.60;17.67;;;;;;;2.47;59.51;101164.34;4180237;28;20147;-61
2022/03/05 08:12:31;;;;;;;30.55;17.83;;;;;;;2.56;58.97;101164.91;4179442;28;20055;-61
2022/03/05 08:14:34;;;;;;;35.72;18.20;;;;;;;2.61;59.14;101163.47;4178637;28;20049;-60
2022/03/05 08:16:37;;;;;;;29.30;16.02;;;;;;;2.58;58.85;101159.03;4180135;28;20388;-61
2022/03/05 08:18:40;;;;;;;28.25;17.30;;;;;;;2.83;58.06;101159.56;4180288;28;20041;-61
2022/03/05 08:20:42;;;;;;;29.52;17.30;;;;;;;2.72;58.49;101164.97;4180226;28;20045;-60
2022/03/05 08:22:47;;;;;;;26.08;15.82;;;;;;;2.69;58.60;101167.38;4179426;28;20281;-60
2022/03/05 08:24:49;;;;;;;30.60;17.17;;;;;;;2.76;58.06;101166.91;4180268;28;20041;-60
2022/03/05 08:26:52;;;;;;;28.98;16.50;;;;;;;2.86;57.68;101154.59;4178302;28;20064;-60
2022/03/05 08:28:55;;;;;;;29.27;15.55;;;;;;;2.89;57.73;101160.81;4171687;28;20092;-61
2022/03/05 08:30:57;;;;;;;32.67;17.83;;;;;;;2.96;57.60;101159.44;4174327;28;20495;-60
2022/03/05 08:33:00;;;;;;;29.40;17.17;;;;;;;3.04;57.57;101160.78;4179182;28;20037;-60
2022/03/05 08:35:03;;;;;;;25.38;15.55;;;;;;;3.13;57.79;101171.56;4173865;28;20098;-60
2022/03/05 08:37:06;;;;;;;30.00;17.05;;;;;;;3.21;57.19;101169.41;4180175;28;20045;-60
2022/03/05 08:39:10;;;;;;;28.00;14.70;;;;;;;3.28;57.19;101171.50;4179909;28;20053;-61
2022/03/05 08:41:13;;;;;;;36.27;20.60;;;;;;;3.32;56.95;101172.56;4180568;28;20095;-60
2022/03/05 08:43:15;;;;;;;32.33;18.98;;;;;;;3.46;56.26;101171.66;4178385;28;20527;-60
2022/03/05 08:45:18;;;;;;;33.53;18.75;;;;;;;3.58;56.25;101160.28;4179803;28;20033;-61
2022/03/05 08:47:21;;;;;;;31.50;16.67;;;;;;;3.54;56.44;101166.03;4181129;28;20087;-61
2022/03/05 08:49:24;;;;;;;30.23;16.88;;;;;;;3.58;55.81;101163.72;4170183;28;20045;-60
2022/03/05 08:51:26;;;;;;;29.33;17.35;;;;;;;3.68;55.88;101165.09;4169589;28;20038;-60
2022/03/05 08:53:29;;;;;;;24.65;15.57;;;;;;;3.75;55.65;101168.88;4166326;28;20065;-60
2022/03/05 08:55:33;;;;;;;28.75;14.73;;;;;;;3.80;55.36;101173.47;4181929;28;20469;-60
2022/03/05 08:57:36;;;;;;;24.55;14.20;;;;;;;3.79;54.62;101168.22;4172013;28;20053;-60
2022/03/05 08:59:39;;;;;;;27.77;15.75;;;;;;;3.81;54.29;101169.19;4176140;28;20061;-60
2022/03/05 09:01:42;;;;;;;27.02;15.82;;;;;;;3.80;54.03;101163.16;4182673;28;20049;-60
2022/03/05 09:03:45;;;;;;;28.42;16.50;;;;;;;4.08;53.30;101169.75;4178740;28;20136;-61
2022/03/05 09:05:48;;;;;;;26.55;15.50;;;;;;;4.21;52.52;101170.41;4167094;28;20041;-61
2022/03/05 09:07:51;;;;;;;26.30;15.10;;;;;;;4.18;51.72;101165.97;4167156;28;20107;-60
2022/03/05 09:09:53;;;;;;;31.77;17.38;;;;;;;4.41;50.79;101164.59;4176116;28;20049;-60
2022/03/05 09:11:57;;;;;;;24.40;15.05;;;;;;;4.34;51.06;101172.81;4174553;28;20372;-60
2022/03/05 09:14:00;;;;;;;23.33;14.17;;;;;;;4.28;51.01;101167.31;4171130;28;20045;-60
2022/03/05 09:16:04;;;;;;;27.50;15.73;;;;;;;4.37;51.92;101171.25;4176442;28;20353;-60
2022/03/05 09:18:07;;;;;;;26.55;15.82;;;;;;;4.55;50.20;101170.41;4181201;28;20053;-61
2022/03/05 09:20:10;;;;;;;25.45;15.88;;;;;;;4.62;49.76;101166.47;4170408;28;20054;-60
2022/03/05 09:22:13;;;;;;;25.60;15.88;;;;;;;4.72;49.96;101161.84;4170991;28;20082;-62
2022/03/05 09:24:15;;;;;;;24.15;14.75;;;;;;;4.70;49.99;101167.72;4174739;28;20107;-61
2022/03/05 09:26:18;;;;;;;22.27;14.00;;;;;;;4.75;50.65;101166.25;4179821;28;20419;-60
2022/03/05 09:28:22;;;;;;;24.98;15.32;;;;;;;4.80;50.40;101169.06;4182026;28;20513;-60
2022/03/05 09:30:25;;;;;;;25.40;15.80;;;;;;;4.98;49.94;101166.47;4175669;28;20045;-61